Time;durP1;ratioP1;P1;durP2;ratioP2;P2;SDS_P1;SDS_P2;PMS_P1;PMS_P2;Temp;Humidity;BMP_temperature;BMP_pressure;BME280_temperature;BME280_humidity;BME280_pressure;Samples;Min_cycle;Max_cycle;Signal;HPM_P1;HPM_P2
2022/11/28 04:01:09;;;;;;;;;;;7.50;99.90;;;;;;5866482;23;20028;-66
2022/11/28 04:03:40;;;;;;;;;;;7.50;99.90;;;;;;4972609;28;20401;-66
2022/11/28 04:06:12;;;;;;;;;;;7.50;99.90;;;;;;4974110;28;20037;-66
2022/11/28 04:08:41;;;;;;;;;;;7.50;99.90;;;;;;4971311;28;19976;-67
2022/11/28 04:11:09;;;;;;;;;;;7.50;99.90;;;;;;4972722;28;19954;-65
2022/11/28 04:13:37;;;;;;;;;;;7.40;99.90;;;;;;4955323;28;20005;-66
2022/11/28 04:16:07;;;;;;;;;;;7.40;99.90;;;;;;4956818;28;20346;-66
2022/11/28 04:18:38;;;;;;;;;;;7.40;99.90;;;;;;4960679;28;19965;-66
2022/11/28 04:21:09;;;;;;;;;;;7.40;99.90;;;;;;4967983;28;19926;-62
2022/11/28 04:23:37;;;;;;;;;;;7.40;99.90;;;;;;4967621;28;19926;-65
2022/11/28 04:26:06;;;;;;;;;;;7.40;99.90;;;;;;4963231;28;19933;-63
2022/11/28 04:28:34;;;;;;;;;;;7.50;99.90;;;;;;4956997;28;19926;-64
2022/11/28 04:31:02;;;;;;;;;;;7.50;99.90;;;;;;4966715;28;19948;-64
2022/11/28 04:33:32;;;;;;;;;;;7.50;99.90;;;;;;4964328;28;19927;-64
2022/11/28 04:35:59;;;;;;;;;;;7.50;99.90;;;;;;4995006;23;19946;-66
2022/11/28 04:38:27;;;;;;;;;;;7.50;99.90;;;;;;4971278;28;20025;-66
2022/11/28 04:40:56;;;;;;;;;;;7.40;99.90;;;;;;4966361;28;19932;-64
2022/11/28 04:43:25;;;;;;;;;;;7.40;99.90;;;;;;4974003;28;19926;-66
2022/11/28 04:45:53;;;;;;;;;;;7.40;99.90;;;;;;4975684;28;20008;-66
2022/11/28 04:48:20;;;;;;;;;;;7.40;99.90;;;;;;4966587;28;19968;-65
2022/11/28 04:50:49;;;;;;;;;;;7.40;99.90;;;;;;4962007;28;19977;-65
2022/11/28 04:53:19;;;;;;;;;;;7.40;99.90;;;;;;4970536;28;19981;-65
2022/11/28 04:55:47;;;;;;;;;;;7.40;99.90;;;;;;4972559;28;20377;-65
2022/11/28 04:58:16;;;;;;;;;;;7.40;99.90;;;;;;4970481;28;19926;-66
2022/11/28 05:00:44;;;;;;;;;;;7.40;99.90;;;;;;4958697;28;19933;-65
2022/11/28 05:03:11;;;;;;;;;;;7.40;99.90;;;;;;4970679;28;19926;-65
2022/11/28 05:05:42;;;;;;;;;;;7.40;99.90;;;;;;4966200;28;19930;-65
2022/11/28 05:08:10;;;;;;;;;;;7.40;99.90;;;;;;4971586;28;19926;-66
2022/11/28 05:10:37;;;;;;;;;;;7.40;99.90;;;;;;4964909;28;20324;-65
2022/11/28 05:13:04;;;;;;;;;;;7.30;99.90;;;;;;4967535;28;19927;-65
2022/11/28 05:15:31;;;;;;;;;;;7.30;99.90;;;;;;4967671;28;19937;-65
2022/11/28 05:17:57;;;;;;;;;;;7.30;99.90;;;;;;4974015;28;20436;-65
2022/11/28 05:20:24;;;;;;;;;;;7.30;99.90;;;;;;4967998;28;19934;-66
2022/11/28 05:22:51;;;;;;;;;;;7.30;99.90;;;;;;4966633;28;19925;-65
2022/11/28 05:25:19;;;;;;;;;;;7.30;99.90;;;;;;4971880;28;19930;-65
2022/11/28 05:27:46;;;;;;;;;;;7.30;99.90;;;;;;4961319;28;19930;-65
2022/11/28 05:30:13;;;;;;;;;;;7.30;99.90;;;;;;4963416;28;19933;-65
2022/11/28 05:32:40;;;;;;;;;;;7.30;99.90;;;;;;4959211;28;19933;-65
2022/11/28 05:35:07;;;;;;;;;;;7.30;99.90;;;;;;4962500;28;19935;-65
2022/11/28 05:37:34;;;;;;;;;;;7.30;99.90;;;;;;4964338;28;19934;-66
2022/11/28 05:40:01;;;;;;;;;;;7.30;99.90;;;;;;4967419;28;20401;-66
2022/11/28 05:42:31;;;;;;;;;;;7.30;99.90;;;;;;4969846;28;20472;-66
2022/11/28 05:44:58;;;;;;;;;;;7.30;99.90;;;;;;4964496;28;19978;-66
2022/11/28 05:47:25;;;;;;;;;;;7.30;99.90;;;;;;4970021;28;20456;-65
2022/11/28 05:49:52;;;;;;;;;;;7.30;99.90;;;;;;4959900;28;19926;-65
2022/11/28 05:52:18;;;;;;;;;;;7.30;99.90;;;;;;4960995;28;20389;-66
2022/11/28 05:54:45;;;;;;;;;;;7.30;99.90;;;;;;4952594;28;20405;-65
2022/11/28 05:57:12;;;;;;;;;;;7.30;99.90;;;;;;4952925;28;19927;-66
2022/11/28 05:59:40;;;;;;;;;;;7.30;99.90;;;;;;4957892;28;19930;-65
2022/11/28 06:02:07;;;;;;;;;;;7.30;99.90;;;;;;4950123;28;20297;-67
2022/11/28 06:04:34;;;;;;;;;;;7.30;99.90;;;;;;4957089;28;19927;-65
2022/11/28 06:07:00;;;;;;;;;;;7.30;99.90;;;;;;4959456;28;19930;-65
2022/11/28 06:09:27;;;;;;;;;;;7.30;99.90;;;;;;4965164;28;20360;-65
2022/11/28 06:11:54;;;;;;;;;;;7.30;99.90;;;;;;4958023;28;19989;-66
2022/11/28 06:14:21;;;;;;;;;;;7.30;99.90;;;;;;4954927;28;19926;-65
2022/11/28 06:16:49;;;;;;;;;;;7.30;99.90;;;;;;4944070;28;19935;-65
2022/11/28 06:19:15;;;;;;;;;;;7.30;99.90;;;;;;4948150;28;19931;-65
2022/11/28 06:21:42;;;;;;;;;;;7.40;99.90;;;;;;4941889;28;19933;-64
2022/11/28 06:24:09;;;;;;;;;;;7.30;99.90;;;;;;4965436;28;20341;-65
2022/11/28 06:26:36;;;;;;;;;;;7.30;99.90;;;;;;4964230;28;19938;-66
2022/11/28 06:29:03;;;;;;;;;;;7.30;99.90;;;;;;4965470;28;19927;-65
2022/11/28 06:31:31;;;;;;;;;;;7.30;99.90;;;;;;4969718;28;20353;-64
2022/11/28 06:33:59;;;;;;;;;;;7.30;99.90;;;;;;4969449;28;19926;-65
2022/11/28 06:36:26;;;;;;;;;;;7.30;99.90;;;;;;4965038;28;20497;-65
2022/11/28 06:38:53;;;;;;;;;;;7.30;99.90;;;;;;4966806;28;20340;-66
2022/11/28 06:41:20;;;;;;;;;;;7.30;99.90;;;;;;4963508;28;20017;-67
2022/11/28 06:43:46;;;;;;;;;;;7.30;99.90;;;;;;4954805;28;19930;-65
2022/11/28 06:46:14;;;;;;;;;;;7.30;99.90;;;;;;4938917;28;19927;-65
2022/11/28 06:48:41;;;;;;;;;;;7.30;99.90;;;;;;4964753;28;19930;-65
2022/11/28 06:51:11;;;;;;;;;;;7.30;99.90;;;;;;4936569;28;19978;-65
2022/11/28 06:53:38;;;;;;;;;;;7.30;99.90;;;;;;4954840;28;20492;-64
2022/11/28 06:56:05;;;;;;;;;;;7.20;99.90;;;;;;4948332;28;19982;-66
2022/11/28 06:58:32;;;;;;;;;;;7.20;99.90;;;;;;4954501;28;19931;-66
2022/11/28 07:01:04;;;;;;;;;;;7.30;99.90;;;;;;4951433;28;20034;-67
2022/11/28 07:03:31;;;;;;;;;;;7.30;99.90;;;;;;4943800;28;20342;-64
2022/11/28 07:05:59;;;;;;;;;;;7.30;99.90;;;;;;4956316;28;19930;-65
2022/11/28 07:08:28;;;;;;;;;;;7.30;99.90;;;;;;4945153;28;19961;-64
2022/11/28 07:10:56;;;;;;;;;;;7.30;99.90;;;;;;4950936;28;19926;-64
2022/11/28 07:13:23;;;;;;;;;;;7.30;99.90;;;;;;4946487;28;19934;-65
2022/11/28 07:15:50;;;;;;;;;;;7.30;99.90;;;;;;4951362;28;19927;-65
2022/11/28 07:18:17;;;;;;;;;;;7.30;99.90;;;;;;4946375;28;19974;-66
2022/11/28 07:20:44;;;;;;;;;;;7.30;99.90;;;;;;4951139;28;19926;-65
2022/11/28 07:23:10;;;;;;;;;;;7.30;99.90;;;;;;4951491;28;19926;-63
2022/11/28 07:25:39;;;;;;;;;;;7.30;99.90;;;;;;4952476;28;20393;-65
2022/11/28 07:28:06;;;;;;;;;;;7.30;99.90;;;;;;4957685;28;20283;-65
2022/11/28 07:30:33;;;;;;;;;;;7.30;99.90;;;;;;4960179;28;19930;-65
2022/11/28 07:32:59;;;;;;;;;;;7.30;99.90;;;;;;4959656;28;19970;-65
2022/11/28 07:35:26;;;;;;;;;;;7.30;99.90;;;;;;4943919;28;20374;-65
2022/11/28 07:37:53;;;;;;;;;;;7.30;99.90;;;;;;4952668;28;20346;-65
2022/11/28 07:40:21;;;;;;;;;;;7.30;99.90;;;;;;4949708;28;19926;-64
2022/11/28 07:42:50;;;;;;;;;;;7.30;99.90;;;;;;4952917;28;19927;-65
2022/11/28 07:45:16;;;;;;;;;;;7.40;99.90;;;;;;4957217;28;20392;-66
2022/11/28 07:47:43;;;;;;;;;;;7.30;99.90;;;;;;4962909;28;19926;-65
2022/11/28 07:50:10;;;;;;;;;;;7.40;99.90;;;;;;4957143;28;19931;-65
2022/11/28 07:52:37;;;;;;;;;;;7.40;99.90;;;;;;4949654;28;19934;-65
2022/11/28 07:55:04;;;;;;;;;;;7.40;99.90;;;;;;4952753;28;20350;-65
2022/11/28 07:57:30;;;;;;;;;;;7.40;99.90;;;;;;4956806;28;19926;-64
2022/11/28 07:59:59;;;;;;;;;;;7.40;99.90;;;;;;4952067;28;19931;-64
2022/11/28 08:02:26;;;;;;;;;;;7.40;99.90;;;;;;4948724;28;19966;-64
2022/11/28 08:04:53;;;;;;;;;;;7.50;99.90;;;;;;4957707;28;19927;-65
2022/11/28 08:07:20;;;;;;;;;;;7.50;99.90;;;;;;4955219;28;19927;-65
2022/11/28 08:09:47;;;;;;;;;;;7.50;99.90;;;;;;4950227;28;19926;-65
2022/11/28 08:12:13;;;;;;;;;;;7.50;99.90;;;;;;4954902;28;19927;-65
2022/11/28 08:14:40;;;;;;;;;;;7.50;99.90;;;;;;4959403;28;19934;-64
2022/11/28 08:17:09;;;;;;;;;;;7.60;99.90;;;;;;4951265;28;19927;-65
2022/11/28 08:19:35;;;;;;;;;;;7.60;99.90;;;;;;4955957;28;19927;-64
2022/11/28 08:22:02;;;;;;;;;;;7.70;99.90;;;;;;4956679;28;19934;-65
2022/11/28 08:24:29;;;;;;;;;;;7.70;99.90;;;;;;4959870;28;19927;-63
2022/11/28 08:26:56;;;;;;;;;;;7.70;99.90;;;;;;4963358;28;19926;-65
2022/11/28 08:29:23;;;;;;;;;;;7.60;99.90;;;;;;4968761;28;20432;-65
2022/11/28 08:31:49;;;;;;;;;;;7.60;99.90;;;;;;4965433;28;19930;-64
2022/11/28 08:34:18;;;;;;;;;;;7.60;99.90;;;;;;4963525;28;19930;-65
2022/11/28 08:36:46;;;;;;;;;;;7.60;99.90;;;;;;4954421;28;20388;-65
2022/11/28 08:39:12;;;;;;;;;;;7.60;99.90;;;;;;4967267;28;19934;-65
2022/11/28 08:41:39;;;;;;;;;;;7.60;99.90;;;;;;4956291;28;19926;-62
2022/11/28 08:44:06;;;;;;;;;;;7.60;99.90;;;;;;4965703;28;19930;-64
2022/11/28 08:46:33;;;;;;;;;;;7.60;99.90;;;;;;4958832;28;19930;-65
2022/11/28 08:49:01;;;;;;;;;;;7.60;99.90;;;;;;4960304;28;19934;-66
2022/11/28 08:51:29;;;;;;;;;;;7.60;99.90;;;;;;4971968;28;20377;-65
2022/11/28 08:53:56;;;;;;;;;;;7.60;99.90;;;;;;4973758;28;19927;-65
2022/11/28 08:56:23;;;;;;;;;;;7.60;99.90;;;;;;4969263;28;20007;-63
2022/11/28 08:58:50;;;;;;;;;;;7.60;99.90;;;;;;4956481;28;19961;-64
2022/11/28 09:01:17;;;;;;;;;;;7.60;99.90;;;;;;4961752;28;19926;-65
2022/11/28 09:03:45;;;;;;;;;;;7.60;99.90;;;;;;4958093;28;19930;-66
2022/11/28 09:06:11;;;;;;;;;;;7.60;99.90;;;;;;4962438;28;19926;-66
2022/11/28 09:08:40;;;;;;;;;;;7.60;99.90;;;;;;4956635;28;19926;-65
2022/11/28 09:11:08;;;;;;;;;;;7.60;99.90;;;;;;4960883;28;20309;-66
2022/11/28 09:13:35;;;;;;;;;;;7.60;99.90;;;;;;4953037;28;20401;-65
2022/11/28 09:16:02;;;;;;;;;;;7.70;99.90;;;;;;4950084;28;19927;-66
2022/11/28 09:18:29;;;;;;;;;;;7.70;99.90;;;;;;4960929;28;19973;-66
2022/11/28 09:20:59;;;;;;;;;;;7.70;99.90;;;;;;4958404;28;20304;-64
2022/11/28 09:23:26;;;;;;;;;;;7.80;99.90;;;;;;4945266;28;19927;-65
2022/11/28 09:25:54;;;;;;;;;;;7.80;99.90;;;;;;4957389;28;19990;-63
2022/11/28 09:28:21;;;;;;;;;;;7.80;99.90;;;;;;4966175;28;19934;-64
2022/11/28 09:30:47;;;;;;;;;;;7.90;99.90;;;;;;4969169;28;19927;-66
2022/11/28 09:33:14;;;;;;;;;;;7.90;99.90;;;;;;4966992;28;19929;-64
2022/11/28 09:35:41;;;;;;;;;;;8.00;99.90;;;;;;4973418;28;19973;-65
2022/11/28 09:38:08;;;;;;;;;;;8.00;99.90;;;;;;4961428;28;19927;-62
2022/11/28 09:40:36;;;;;;;;;;;8.00;99.90;;;;;;4951681;28;19931;-65
2022/11/28 09:43:10;;;;;;;;;;;8.10;99.90;;;;;;4960125;28;19933;-65
2022/11/28 09:45:37;;;;;;;;;;;8.10;99.90;;;;;;4955810;28;20397;-64
2022/11/28 09:48:08;;;;;;;;;;;8.20;99.90;;;;;;4950471;28;19962;-65
2022/11/28 09:50:35;;;;;;;;;;;8.20;99.90;;;;;;4960457;28;20381;-65
2022/11/28 09:53:09;;;;;;;;;;;8.20;99.90;;;;;;4952114;28;19927;-65
2022/11/28 09:55:38;;;;;;;;;;;8.20;99.90;;;;;;4958772;28;19933;-65
2022/11/28 09:58:10;;;;;;;;;;;8.30;99.90;;;;;;4946749;28;19935;-65
2022/11/28 10:00:38;;;;;;;;;;;8.40;99.90;;;;;;4948688;28;19934;-64
2022/11/28 10:03:11;;;;;;;;;;;8.40;99.90;;;;;;4945331;28;19931;-65
2022/11/28 10:05:41;;;;;;;;;;;8.50;99.90;;;;;;4952950;28;19926;-65
2022/11/28 10:08:20;;;;;;;;;;;8.50;99.90;;;;;;4960471;28;19930;-66
2022/11/28 10:10:52;;;;;;;;;;;8.50;99.90;;;;;;4947197;28;19930;-65
2022/11/28 10:13:25;;;;;;;;;;;8.50;99.90;;;;;;4960100;28;19927;-66
2022/11/28 10:15:56;;;;;;;;;;;8.50;99.90;;;;;;4956976;28;19984;-65
2022/11/28 10:18:28;;;;;;;;;;;8.60;99.90;;;;;;4955310;28;20346;-65
2022/11/28 10:20:57;;;;;;;;;;;8.60;99.90;;;;;;4958842;28;19930;-65
2022/11/28 10:23:28;;;;;;;;;;;8.60;99.90;;;;;;4947921;28;19942;-65
2022/11/28 10:25:57;;;;;;;;;;;8.60;99.90;;;;;;4946880;28;19965;-65
2022/11/28 10:28:26;;;;;;;;;;;8.60;99.90;;;;;;4956396;28;20361;-65
2022/11/28 10:30:55;;;;;;;;;;;8.60;99.90;;;;;;4967582;28;19926;-65
2022/11/28 10:33:25;;;;;;;;;;;8.60;99.90;;;;;;4966673;28;19926;-66
2022/11/28 10:35:54;;;;;;;;;;;8.70;99.90;;;;;;4965325;28;19930;-66
2022/11/28 10:38:24;;;;;;;;;;;8.70;99.90;;;;;;4967060;28;19934;-65
2022/11/28 10:40:56;;;;;;;;;;;8.70;99.90;;;;;;4971348;28;19926;-65
2022/11/28 10:43:37;;;;;;;;;;;8.70;99.90;;;;;;4959239;28;19927;-65
2022/11/28 10:46:13;;;;;;;;;;;8.60;99.90;;;;;;4970111;28;19926;-65
2022/11/28 10:48:45;;;;;;;;;;;8.60;99.90;;;;;;4964221;28;19934;-66
2022/11/28 10:51:19;;;;;;;;;;;8.70;99.90;;;;;;4964475;28;19926;-65
2022/11/28 10:53:49;;;;;;;;;;;8.70;99.90;;;;;;4956043;28;19934;-65
2022/11/28 10:56:21;;;;;;;;;;;8.70;99.90;;;;;;4953925;28;19977;-65
2022/11/28 10:58:53;;;;;;;;;;;8.70;99.90;;;;;;4957402;28;19930;-64
2022/11/28 11:01:20;;;;;;;;;;;8.80;99.90;;;;;;4952649;28;19926;-65
2022/11/28 11:03:48;;;;;;;;;;;8.80;99.90;;;;;;4953413;28;19926;-65
2022/11/28 11:06:14;;;;;;;;;;;8.80;99.90;;;;;;4959234;28;19926;-65
2022/11/28 11:08:41;;;;;;;;;;;8.90;99.90;;;;;;4955046;28;19939;-65
2022/11/28 11:11:18;;;;;;;;;;;8.90;99.90;;;;;;4958305;28;20381;-65
2022/11/28 11:13:57;;;;;;;;;;;8.90;99.90;;;;;;4951683;28;19926;-65
2022/11/28 11:16:24;;;;;;;;;;;8.90;99.90;;;;;;4947925;28;20299;-65
2022/11/28 11:18:52;;;;;;;;;;;8.90;99.90;;;;;;4953288;28;19931;-64
2022/11/28 11:21:20;;;;;;;;;;;9.00;99.90;;;;;;4963865;28;19933;-65
2022/11/28 11:23:47;;;;;;;;;;;9.00;99.90;;;;;;4952876;28;19931;-64
2022/11/28 11:26:20;;;;;;;;;;;9.00;99.90;;;;;;4954771;28;19927;-65
2022/11/28 11:28:49;;;;;;;;;;;9.10;99.90;;;;;;4954551;28;19934;-65
2022/11/28 11:31:18;;;;;;;;;;;9.10;99.90;;;;;;4957248;28;19926;-65
2022/11/28 11:33:46;;;;;;;;;;;9.10;99.90;;;;;;4949419;28;19980;-64
2022/11/28 11:36:24;;;;;;;;;;;9.10;99.90;;;;;;4964030;28;19930;-65
2022/11/28 11:38:51;;;;;;;;;;;9.10;99.90;;;;;;4971344;28;20393;-64
2022/11/28 11:41:19;;;;;;;;;;;9.10;99.90;;;;;;4961473;28;20361;-65
2022/11/28 11:43:46;;;;;;;;;;;9.10;99.90;;;;;;4960069;28;20400;-65
2022/11/28 11:46:14;;;;;;;;;;;9.10;99.90;;;;;;4958043;28;19926;-65
2022/11/28 11:48:43;;;;;;;;;;;9.20;99.90;;;;;;4969594;28;19926;-64
2022/11/28 11:51:22;;;;;;;;;;;9.10;99.90;;;;;;4971151;28;19933;-65
2022/11/28 11:53:48;;;;;;;;;;;9.20;99.90;;;;;;4952011;28;19933;-65
2022/11/28 11:56:15;;;;;;;;;;;9.20;99.90;;;;;;4963620;28;19930;-68
2022/11/28 11:58:45;;;;;;;;;;;9.10;99.90;;;;;;4971487;28;19934;-65
2022/11/28 12:01:13;;;;;;;;;;;9.10;99.90;;;;;;4961015;28;19927;-65
2022/11/28 12:03:41;;;;;;;;;;;9.10;99.90;;;;;;4955909;28;19930;-67
2022/11/28 12:06:13;;;;;;;;;;;9.20;99.90;;;;;;4963904;28;19926;-65
2022/11/28 12:08:43;;;;;;;;;;;9.20;99.90;;;;;;4965593;28;19938;-65
2022/11/28 12:11:13;;;;;;;;;;;9.20;99.90;;;;;;4963474;28;20381;-66
2022/11/28 12:13:40;;;;;;;;;;;9.10;99.90;;;;;;4959789;28;19926;-66
2022/11/28 12:16:10;;;;;;;;;;;9.20;99.90;;;;;;4950752;28;19931;-65
2022/11/28 12:18:43;;;;;;;;;;;9.20;99.90;;;;;;4959187;28;19934;-64
2022/11/28 12:21:18;;;;;;;;;;;9.20;99.90;;;;;;4954454;28;19934;-66
2022/11/28 12:23:53;;;;;;;;;;;9.20;99.90;;;;;;4966338;28;19949;-64
2022/11/28 12:26:23;;;;;;;;;;;9.30;99.90;;;;;;4957451;28;19926;-65
2022/11/28 12:28:56;;;;;;;;;;;9.20;99.90;;;;;;4963323;28;19984;-64
2022/11/28 12:31:27;;;;;;;;;;;9.30;99.90;;;;;;4966929;28;19990;-65
2022/11/28 12:34:01;;;;;;;;;;;9.30;99.90;;;;;;4962467;28;19937;-65
2022/11/28 12:36:33;;;;;;;;;;;9.30;99.90;;;;;;4972550;28;19926;-65
2022/11/28 12:39:09;;;;;;;;;;;9.30;99.90;;;;;;4966867;28;20029;-65
2022/11/28 12:41:41;;;;;;;;;;;9.30;99.90;;;;;;4965568;28;20017;-65
2022/11/28 12:44:14;;;;;;;;;;;9.30;99.90;;;;;;4969299;28;19930;-65
2022/11/28 12:46:46;;;;;;;;;;;9.30;99.90;;;;;;4955361;28;20457;-65
2022/11/28 12:49:18;;;;;;;;;;;9.30;99.90;;;;;;4960697;28;19926;-66
2022/11/28 12:51:53;;;;;;;;;;;9.30;99.90;;;;;;4949854;28;19978;-65
2022/11/28 12:54:34;;;;;;;;;;;9.30;99.90;;;;;;4959702;28;20356;-66
2022/11/28 12:57:04;;;;;;;;;;;9.30;99.90;;;;;;4955073;28;19974;-66
2022/11/28 12:59:32;;;;;;;;;;;9.40;99.90;;;;;;4963693;28;20317;-65
2022/11/28 13:02:02;;;;;;;;;;;9.40;99.90;;;;;;4956931;28;19998;-65
2022/11/28 13:04:37;;;;;;;;;;;9.40;99.90;;;;;;4964151;28;19926;-66
2022/11/28 13:07:10;;;;;;;;;;;9.40;99.90;;;;;;4956932;28;19927;-65
2022/11/28 13:09:38;;;;;;;;;;;9.50;99.90;;;;;;4952431;28;19941;-65
2022/11/28 13:12:16;;;;;;;;;;;9.60;99.90;;;;;;4951513;28;19982;-65
2022/11/28 13:14:46;;;;;;;;;;;9.60;99.90;;;;;;4946015;28;19930;-65
2022/11/28 13:17:18;;;;;;;;;;;9.60;99.90;;;;;;4950385;28;19930;-66
2022/11/28 13:19:50;;;;;;;;;;;9.60;99.90;;;;;;4952499;28;19926;-65
2022/11/28 13:22:22;;;;;;;;;;;9.50;99.90;;;;;;4950339;28;19931;-65
2022/11/28 13:24:52;;;;;;;;;;;9.50;99.90;;;;;;4962575;28;19926;-65
2022/11/28 13:27:23;;;;;;;;;;;9.50;99.90;;;;;;4967830;28;19929;-65
2022/11/28 13:29:53;;;;;;;;;;;9.50;99.90;;;;;;4954266;28;20420;-65
2022/11/28 13:32:23;;;;;;;;;;;9.50;99.90;;;;;;4953676;28;19934;-65
2022/11/28 13:34:50;;;;;;;;;;;9.50;99.90;;;;;;4959572;28;19978;-65
2022/11/28 13:37:22;;;;;;;;;;;9.50;99.90;;;;;;4953012;28;19930;-65
2022/11/28 13:39:52;;;;;;;;;;;9.60;99.90;;;;;;4960660;28;20009;-65
2022/11/28 13:42:24;;;;;;;;;;;9.60;99.90;;;;;;4960834;28;19926;-65
2022/11/28 13:44:56;;;;;;;;;;;9.60;99.90;;;;;;4959668;28;19927;-65
2022/11/28 13:47:28;;;;;;;;;;;9.50;99.90;;;;;;4955404;28;19931;-65
2022/11/28 13:50:13;;;;;;;;;;;9.50;99.90;;;;;;4948108;28;19926;-65
2022/11/28 13:52:43;;;;;;;;;;;9.50;99.90;;;;;;4957217;28;19972;-66
2022/11/28 13:55:24;;;;;;;;;;;9.60;99.90;;;;;;4961008;28;20377;-65
2022/11/28 13:57:51;;;;;;;;;;;9.50;99.90;;;;;;4951676;28;19927;-65
2022/11/28 14:00:21;;;;;;;;;;;9.50;99.90;;;;;;4958126;28;19930;-66
2022/11/28 14:02:49;;;;;;;;;;;9.50;99.90;;;;;;4958537;28;20011;-65
2022/11/28 14:05:23;;;;;;;;;;;9.50;99.90;;;;;;4961106;28;19927;-65
2022/11/28 14:07:51;;;;;;;;;;;9.50;99.90;;;;;;4955820;28;19927;-65
2022/11/28 14:10:28;;;;;;;;;;;9.50;99.90;;;;;;4953206;28;19930;-65
2022/11/28 14:13:03;;;;;;;;;;;9.50;99.90;;;;;;4952557;28;19930;-63
2022/11/28 14:15:32;;;;;;;;;;;9.50;99.90;;;;;;4938927;28;19935;-66
2022/11/28 14:18:18;;;;;;;;;;;9.50;99.90;;;;;;4957361;28;19933;-65
2022/11/28 14:20:51;;;;;;;;;;;9.50;99.90;;;;;;4957398;28;19926;-67
2022/11/28 14:23:26;;;;;;;;;;;9.50;99.90;;;;;;4962619;28;19930;-67
2022/11/28 14:25:53;;;;;;;;;;;9.50;99.90;;;;;;4959393;28;19926;-65
2022/11/28 14:28:25;;;;;;;;;;;9.50;99.90;;;;;;4964939;28;19926;-66
2022/11/28 14:31:00;;;;;;;;;;;9.50;99.90;;;;;;4968801;23;19938;-67
2022/11/28 14:33:31;;;;;;;;;;;9.50;99.90;;;;;;4928725;29;20391;-67
2022/11/28 14:36:13;;;;;;;;;;;9.50;99.90;;;;;;4930950;29;19931;-67
2022/11/28 14:38:42;;;;;;;;;;;9.40;99.90;;;;;;4921886;29;19927;-67
2022/11/28 14:41:10;;;;;;;;;;;9.40;99.90;;;;;;4926372;29;20363;-63
2022/11/28 14:43:38;;;;;;;;;;;9.40;99.90;;;;;;4932796;29;19977;-67
2022/11/28 14:46:20;;;;;;;;;;;9.40;99.90;;;;;;4938881;29;20021;-70
2022/11/28 14:49:06;;;;;;;;;;;9.40;99.90;;;;;;4909313;29;19935;-70
2022/11/28 14:51:57;;;;;;;;;;;9.30;99.90;;;;;;4938428;29;20375;-68
2022/11/28 14:54:26;;;;;;;;;;;9.30;99.90;;;;;;4933187;29;20103;-70
2022/11/28 14:56:54;;;;;;;;;;;9.30;99.90;;;;;;4918369;29;19931;-67
2022/11/28 14:59:24;;;;;;;;;;;9.30;99.90;;;;;;4917211;29;20279;-69
2022/11/28 15:01:54;;;;;;;;;;;9.20;99.90;;;;;;4919319;29;19933;-68
2022/11/28 15:04:30;;;;;;;;;;;9.20;99.90;;;;;;4928023;29;19927;-67
2022/11/28 15:06:59;;;;;;;;;;;9.20;99.90;;;;;;4924632;29;19927;-67
2022/11/28 15:09:31;;;;;;;;;;;9.10;99.90;;;;;;4922936;29;20372;-65
2022/11/28 15:12:07;;;;;;;;;;;9.10;99.90;;;;;;4916971;29;19931;-67
2022/11/28 15:14:36;;;;;;;;;;;9.10;99.90;;;;;;4917610;29;19931;-66
2022/11/28 15:17:05;;;;;;;;;;;9.00;99.90;;;;;;4919518;29;19950;-64
2022/11/28 15:19:33;;;;;;;;;;;8.90;99.90;;;;;;4916058;29;19934;-65
2022/11/28 15:22:00;;;;;;;;;;;8.90;99.90;;;;;;4921014;29;19927;-66
2022/11/28 15:24:30;;;;;;;;;;;8.80;99.90;;;;;;4919274;29;19962;-67
2022/11/28 15:26:58;;;;;;;;;;;8.80;99.90;;;;;;4918175;29;19934;-68
2022/11/28 15:29:26;;;;;;;;;;;8.80;99.90;;;;;;4918425;29;19931;-68
2022/11/28 15:31:55;;;;;;;;;;;8.80;99.90;;;;;;4926607;29;19979;-66
2022/11/28 15:34:24;;;;;;;;;;;8.70;99.90;;;;;;4921090;29;19934;-65
2022/11/28 15:36:53;;;;;;;;;;;8.70;99.90;;;;;;4918930;29;20013;-65
2022/11/28 15:39:28;;;;;;;;;;;8.70;99.90;;;;;;4920934;29;20029;-67
2022/11/28 15:41:58;;;;;;;;;;;8.70;99.90;;;;;;4931398;28;19931;-66
2022/11/28 15:44:25;;;;;;;;;;;8.70;99.90;;;;;;4917655;29;19927;-67
2022/11/28 15:46:52;;;;;;;;;;;8.70;99.90;;;;;;4916046;29;19931;-66
2022/11/28 15:49:23;;;;;;;;;;;8.70;99.90;;;;;;4917094;29;19934;-66
2022/11/28 15:51:52;;;;;;;;;;;8.70;99.90;;;;;;4915261;29;20414;-65
2022/11/28 15:54:26;;;;;;;;;;;8.70;99.90;;;;;;4919947;29;19927;-65
2022/11/28 15:56:58;;;;;;;;;;;8.70;99.90;;;;;;4922297;29;19927;-67
2022/11/28 15:59:24;;;;;;;;;;;8.70;99.90;;;;;;4927823;29;19942;-67
2022/11/28 16:01:52;;;;;;;;;;;8.70;99.90;;;;;;4923439;29;19928;-65
2022/11/28 16:04:19;;;;;;;;;;;8.70;99.90;;;;;;4929339;29;20379;-67
2022/11/28 16:06:50;;;;;;;;;;;8.60;99.90;;;;;;4927203;29;19933;-65
2022/11/28 16:09:24;;;;;;;;;;;8.60;99.90;;;;;;4923136;29;19934;-64
2022/11/28 16:11:52;;;;;;;;;;;8.60;99.90;;;;;;4922046;29;19927;-66
2022/11/28 16:14:21;;;;;;;;;;;8.70;99.90;;;;;;4921827;29;19931;-64
2022/11/28 16:16:49;;;;;;;;;;;8.70;99.90;;;;;;4919103;29;20393;-66
2022/11/28 16:19:21;;;;;;;;;;;8.70;99.90;;;;;;4924197;29;19943;-66
2022/11/28 16:21:51;;;;;;;;;;;8.70;99.90;;;;;;4925050;29;19995;-65
2022/11/28 16:24:21;;;;;;;;;;;8.80;99.90;;;;;;4923500;29;19931;-64
2022/11/28 16:26:53;;;;;;;;;;;8.70;99.90;;;;;;4933104;29;19926;-66
2022/11/28 16:29:22;;;;;;;;;;;8.70;99.90;;;;;;4940186;29;19927;-65
2022/11/28 16:31:49;;;;;;;;;;;8.70;99.90;;;;;;4933169;29;20382;-65
2022/11/28 16:34:16;;;;;;;;;;;8.70;99.90;;;;;;4941405;29;19978;-65
2022/11/28 16:36:49;;;;;;;;;;;8.60;99.90;;;;;;4926079;29;20383;-64
2022/11/28 16:39:17;;;;;;;;;;;8.60;99.90;;;;;;4927522;29;19930;-65
2022/11/28 16:41:47;;;;;;;;;;;8.50;99.90;;;;;;4927702;29;19935;-64
2022/11/28 16:44:16;;;;;;;;;;;8.50;99.90;;;;;;4940342;29;19927;-65
2022/11/28 16:46:51;;;;;;;;;;;8.50;99.90;;;;;;4933322;29;19937;-65
2022/11/28 16:49:35;;;;;;;;;;;8.50;99.90;;;;;;4940581;29;19930;-65
2022/11/28 16:52:29;;;;;;;;;;;8.50;99.90;;;;;;4933663;29;19927;-66
2022/11/28 16:54:56;;;;;;;;;;;8.50;99.90;;;;;;4923967;29;19991;-66
2022/11/28 16:57:23;;;;;;;;;;;8.40;99.90;;;;;;4919135;29;19926;-65
2022/11/28 16:59:51;;;;;;;;;;;8.40;99.90;;;;;;4930196;29;19927;-66
2022/11/28 17:02:20;;;;;;;;;;;8.40;99.90;;;;;;4924428;29;19927;-65
2022/11/28 17:04:48;;;;;;;;;;;8.40;99.90;;;;;;4926266;29;19927;-65
2022/11/28 17:07:16;;;;;;;;;;;8.40;99.90;;;;;;4946030;29;19937;-65
2022/11/28 17:09:44;;;;;;;;;;;8.30;99.90;;;;;;4924458;29;20021;-65
2022/11/28 17:12:14;;;;;;;;;;;8.30;99.90;;;;;;4924038;29;19927;-65
2022/11/28 17:14:42;;;;;;;;;;;8.20;99.90;;;;;;4939006;29;19931;-65
2022/11/28 17:17:11;;;;;;;;;;;8.20;99.90;;;;;;4924558;29;19927;-65
2022/11/28 17:19:40;;;;;;;;;;;8.20;99.90;;;;;;4931843;29;19927;-65
2022/11/28 17:22:07;;;;;;;;;;;8.10;99.90;;;;;;4920661;29;19927;-64
2022/11/28 17:24:35;;;;;;;;;;;8.10;99.90;;;;;;4925968;29;19934;-63
2022/11/28 17:27:02;;;;;;;;;;;8.10;99.90;;;;;;4936948;29;19927;-65
2022/11/28 17:29:28;;;;;;;;;;;8.10;99.90;;;;;;4922863;29;19934;-66
2022/11/28 17:31:57;;;;;;;;;;;8.00;99.90;;;;;;4924951;29;20333;-65
2022/11/28 17:34:25;;;;;;;;;;;8.00;99.90;;;;;;4922615;29;20505;-65
2022/11/28 17:36:53;;;;;;;;;;;8.00;99.90;;;;;;4919587;29;19927;-64
2022/11/28 17:39:20;;;;;;;;;;;7.90;99.90;;;;;;4925642;29;19927;-65
2022/11/28 17:41:47;;;;;;;;;;;7.90;99.90;;;;;;4919694;29;19931;-65
2022/11/28 17:44:15;;;;;;;;;;;8.00;99.90;;;;;;4931132;29;19934;-64
2022/11/28 17:46:42;;;;;;;;;;;8.00;99.90;;;;;;4939938;29;19931;-65
2022/11/28 17:49:09;;;;;;;;;;;7.90;99.90;;;;;;4933430;29;19931;-65
2022/11/28 17:51:37;;;;;;;;;;;7.90;99.90;;;;;;4944913;29;19935;-65
2022/11/28 17:54:06;;;;;;;;;;;7.90;99.90;;;;;;4930017;29;20337;-64
2022/11/28 17:56:33;;;;;;;;;;;7.90;99.90;;;;;;4936123;29;19934;-65
2022/11/28 17:59:00;;;;;;;;;;;7.90;99.90;;;;;;4924906;29;19943;-65
2022/11/28 18:01:28;;;;;;;;;;;7.80;99.90;;;;;;4918539;29;19927;-64
2022/11/28 18:03:58;;;;;;;;;;;7.80;99.90;;;;;;4924316;29;19934;-63
2022/11/28 18:06:25;;;;;;;;;;;7.80;99.90;;;;;;4924567;29;19931;-65
2022/11/28 18:08:52;;;;;;;;;;;7.70;99.90;;;;;;4916586;29;20378;-65
2022/11/28 18:11:21;;;;;;;;;;;7.70;99.90;;;;;;4925293;29;19927;-64
2022/11/28 18:13:48;;;;;;;;;;;7.70;99.90;;;;;;4925867;29;19927;-66
2022/11/28 18:16:15;;;;;;;;;;;7.60;99.90;;;;;;4917193;29;19939;-65
2022/11/28 18:18:44;;;;;;;;;;;7.60;99.90;;;;;;4928143;29;20118;-65
2022/11/28 18:21:13;;;;;;;;;;;7.50;99.90;;;;;;4927678;29;19927;-65
2022/11/28 18:23:40;;;;;;;;;;;7.50;99.90;;;;;;4927258;29;20441;-65
2022/11/28 18:26:08;;;;;;;;;;;7.40;99.90;;;;;;4928477;29;20026;-66
2022/11/28 18:28:37;;;;;;;;;;;7.30;99.90;;;;;;4929609;29;19934;-66
2022/11/28 18:31:08;;;;;;;;;;;7.30;99.90;;;;;;4926997;29;20355;-66
2022/11/28 18:33:35;;;;;;;;;;;7.30;99.90;;;;;;4927457;29;19934;-66
2022/11/28 18:36:07;;;;;;;;;;;7.30;99.90;;;;;;4926071;29;19930;-64
2022/11/28 18:38:34;;;;;;;;;;;7.30;99.90;;;;;;4919817;29;19927;-64
2022/11/28 18:41:04;;;;;;;;;;;7.30;99.90;;;;;;4918165;29;19930;-64
2022/11/28 18:43:32;;;;;;;;;;;7.20;99.90;;;;;;4919119;29;20438;-64